Time;durP1;ratioP1;P1;durP2;ratioP2;P2;SDS_P1;SDS_P2;PMS_P1;PMS_P2;Temp;Humidity;BMP_temperature;BMP_pressure;BME280_temperature;BME280_humidity;BME280_pressure;Samples;Min_cycle;Max_cycle;Signal;HPM_P1;HPM_P2
2022/09/18 00:02:01;;;;;;;2.87;2.10;;;19.10;64.60;20.20;100696.00;;;;5048443;28;20186;-42
2022/09/18 00:04:27;;;;;;;3.07;2.00;;;19.10;64.70;20.20;100695.00;;;;5049010;28;20198;-42
2022/09/18 00:06:53;;;;;;;3.50;2.10;;;19.00;64.50;20.20;100693.00;;;;5048319;28;20523;-42
2022/09/18 00:09:19;;;;;;;2.87;2.10;;;19.00;64.50;20.00;100694.00;;;;5048381;28;20202;-42
2022/09/18 00:11:46;;;;;;;3.70;2.03;;;19.00;64.50;20.20;100693.00;;;;5048538;28;20285;-43
2022/09/18 00:14:20;;;;;;;2.40;1.90;;;19.00;64.50;20.20;100693.00;;;;5048220;28;20530;-42
2022/09/18 00:16:46;;;;;;;2.50;2.10;;;19.00;64.50;20.20;100694.00;;;;5048337;28;20531;-43
2022/09/18 00:19:12;;;;;;;4.07;2.30;;;19.00;64.50;20.20;100697.00;;;;5048784;28;20192;-42
2022/09/18 00:21:43;;;;;;;2.47;1.87;;;19.00;64.50;20.20;100698.00;;;;5048529;28;20288;-43
2022/09/18 00:24:10;;;;;;;2.97;2.20;;;19.00;64.50;20.10;100702.00;;;;5053323;28;20158;-42
2022/09/18 00:26:35;;;;;;;2.70;2.00;;;19.00;64.70;20.10;100706.00;;;;5048765;28;20596;-42
2022/09/18 00:29:01;;;;;;;2.43;2.03;;;19.00;64.70;20.10;100698.00;;;;5047110;28;20214;-42
2022/09/18 00:31:30;;;;;;;3.80;2.03;;;18.90;64.50;20.10;100694.00;;;;5047597;28;20221;-43
2022/09/18 00:33:57;;;;;;;2.30;2.10;;;18.90;64.50;20.10;100691.00;;;;5048253;28;20201;-41
2022/09/18 00:36:23;;;;;;;2.50;2.00;;;18.90;64.60;20.10;100688.00;;;;5048064;28;20202;-42
2022/09/18 00:38:49;;;;;;;2.27;1.93;;;19.00;64.70;20.10;100695.00;;;;5047868;28;20169;-44
2022/09/18 00:41:26;;;;;;;2.97;2.07;;;18.90;64.50;20.10;100695.00;;;;5047946;28;20174;-43
2022/09/18 00:43:55;;;;;;;2.60;2.03;;;18.90;64.70;20.00;100702.00;;;;5048049;28;20166;-44
2022/09/18 00:46:32;;;;;;;2.03;1.83;;;18.90;64.80;20.00;100696.00;;;;5060577;28;20190;-42
2022/09/18 00:49:10;;;;;;;2.47;1.97;;;18.90;64.70;20.00;100702.00;;;;5065784;28;20170;-42
2022/09/18 00:51:36;;;;;;;2.30;2.10;;;18.90;64.70;20.00;100686.00;;;;5064155;28;20205;-42
2022/09/18 00:54:49;;;;;;;2.30;2.10;;;18.90;64.70;20.00;100691.00;;;;5059485;28;20189;-43
2022/09/18 00:57:18;;;;;;;1.97;1.70;;;18.90;64.70;20.00;100688.00;;;;4994526;28;20594;-43
2022/09/18 00:59:45;;;;;;;2.20;2.00;;;18.90;64.70;20.00;100700.00;;;;4992427;28;20579;-43
2022/09/18 01:02:11;;;;;;;2.77;2.07;;;18.80;64.70;20.00;100700.00;;;;5013840;28;20256;-42
2022/09/18 01:04:37;;;;;;;2.80;1.90;;;18.80;64.70;20.00;100691.00;;;;5051544;28;20174;-42
2022/09/18 01:07:13;;;;;;;2.23;2.00;;;18.80;64.80;20.00;100703.00;;;;5052003;28;20178;-43
2022/09/18 01:10:12;;;;;;;2.40;1.80;;;18.80;64.80;20.00;100699.00;;;;5050558;28;20216;-43
2022/09/18 01:12:50;;;;;;;2.50;2.10;;;18.80;64.80;19.90;100698.00;;;;5060919;28;20190;-43
2022/09/18 01:15:56;;;;;;;2.23;1.97;;;18.80;64.90;19.90;100699.00;;;;5067583;28;20190;-43
2022/09/18 01:18:33;;;;;;;3.57;2.00;;;18.80;64.90;19.90;100703.00;;;;5050699;28;20162;-42
2022/09/18 01:21:13;;;;;;;2.27;1.87;;;18.80;64.90;19.90;100702.00;;;;5052349;28;20159;-43
2022/09/18 01:24:27;;;;;;;2.50;1.90;;;18.80;64.90;19.90;100701.00;;;;5051803;28;20185;-43
2022/09/18 01:27:03;;;;;;;1.90;1.60;;;18.80;64.90;19.80;100703.00;;;;5050856;28;20189;-43
2022/09/18 01:29:47;;;;;;;2.30;1.90;;;18.80;65.00;19.80;100698.00;;;;5051370;28;20173;-42
2022/09/18 01:32:28;;;;;;;1.93;1.60;;;18.80;65.00;19.90;100705.00;;;;5050184;28;20220;-42
2022/09/18 01:35:16;;;;;;;2.10;1.83;;;18.70;64.90;19.80;100702.00;;;;5050369;28;20250;-42
2022/09/18 01:37:55;;;;;;;2.17;1.90;;;18.70;64.90;19.80;100696.00;;;;5051431;28;20241;-42
2022/09/18 01:40:55;;;;;;;3.63;1.90;;;18.70;65.00;19.80;100697.00;;;;5050665;28;20503;-44
2022/09/18 01:43:21;;;;;;;3.47;1.90;;;18.70;65.10;19.80;100696.00;;;;5023686;28;20269;-43
2022/09/18 01:45:49;;;;;;;2.37;1.90;;;18.70;65.20;19.80;100699.00;;;;5049646;28;20581;-43
2022/09/18 01:48:39;;;;;;;3.03;1.80;;;18.70;65.20;19.80;100705.00;;;;5049917;28;20174;-43
2022/09/18 01:51:32;;;;;;;2.57;2.10;;;18.70;65.30;19.80;100689.00;;;;5050092;28;20170;-43
2022/09/18 01:54:02;;;;;;;3.23;2.00;;;18.70;65.30;19.80;100694.00;;;;5057544;28;20209;-42
2022/09/18 01:56:33;;;;;;;2.23;1.90;;;18.70;65.30;19.80;100701.00;;;;5050574;28;20814;-43
2022/09/18 01:59:02;;;;;;;2.43;1.90;;;18.70;65.30;19.80;100696.00;;;;5050981;28;20186;-43
2022/09/18 02:01:28;;;;;;;2.57;1.73;;;18.70;65.30;19.80;100697.00;;;;5052619;28;20214;-43
2022/09/18 02:04:03;;;;;;;2.60;1.93;;;18.70;65.30;19.80;100697.00;;;;5050324;28;20601;-41
2022/09/18 02:06:37;;;;;;;2.83;1.80;;;18.70;65.40;19.80;100697.00;;;;5034133;28;20173;-43
2022/09/18 02:09:03;;;;;;;2.40;1.80;;;18.70;65.30;19.80;100686.00;;;;5049288;28;20202;-41
2022/09/18 02:11:28;;;;;;;2.47;1.90;;;18.70;65.20;19.80;100683.00;;;;5050832;28;20251;-44
2022/09/18 02:14:07;;;;;;;4.57;2.13;;;18.70;65.30;19.80;100690.00;;;;5049705;28;20892;-43
2022/09/18 02:16:44;;;;;;;4.33;1.60;;;18.60;65.10;19.80;100689.00;;;;5049683;28;20209;-42
2022/09/18 02:19:19;;;;;;;3.67;2.07;;;18.70;65.10;19.80;100689.00;;;;5050356;28;20165;-42
2022/09/18 02:21:45;;;;;;;6.37;2.07;;;18.70;65.30;19.80;100683.00;;;;5050769;28;20225;-42
2022/09/18 02:24:11;;;;;;;5.63;1.77;;;18.60;65.20;19.80;100681.00;;;;5054984;28;20181;-41
2022/09/18 02:26:37;;;;;;;3.27;1.90;;;18.60;65.20;19.80;100677.00;;;;5061009;28;20228;-42
2022/09/18 02:29:03;;;;;;;4.23;1.90;;;18.70;65.30;19.80;100680.00;;;;5051481;28;20178;-42
2022/09/18 02:31:29;;;;;;;4.90;1.90;;;18.60;65.10;19.80;100677.00;;;;5049066;28;20226;-43
2022/09/18 02:33:55;;;;;;;3.07;2.00;;;18.60;65.10;19.80;100676.00;;;;5050827;28;20192;-41
2022/09/18 02:36:51;;;;;;;3.63;1.87;;;18.60;65.00;19.80;100663.00;;;;5050233;28;20202;-44
2022/09/18 02:39:53;;;;;;;5.20;1.80;;;18.60;65.00;19.70;100663.00;;;;5041337;28;20183;-43
2022/09/18 02:42:39;;;;;;;2.63;1.90;;;18.60;64.90;19.70;100667.00;;;;5049178;28;20189;-42
2022/09/18 02:45:29;;;;;;;3.20;1.87;;;18.60;64.90;19.70;100675.00;;;;5050406;28;20248;-43
2022/09/18 02:48:11;;;;;;;3.87;1.70;;;18.60;64.70;19.70;100665.00;;;;5048594;28;20167;-42
2022/09/18 02:51:06;;;;;;;2.10;1.70;;;18.60;64.70;19.70;100669.00;;;;5049271;28;20159;-43
2022/09/18 02:54:06;;;;;;;3.33;1.80;;;18.60;64.70;19.70;100662.00;;;;5049207;28;20193;-42
2022/09/18 02:57:09;;;;;;;5.13;2.07;;;18.60;64.90;19.60;100662.00;;;;5051491;28;20237;-42
2022/09/18 02:59:41;;;;;;;4.97;1.90;;;18.60;65.10;19.60;100653.00;;;;5064731;28;20225;-43
2022/09/18 03:02:06;;;;;;;4.30;1.50;;;18.50;65.10;19.60;100661.00;;;;5048778;28;20663;-44
2022/09/18 03:04:32;;;;;;;4.83;2.10;;;18.60;65.10;19.60;100655.00;;;;5049269;28;20333;-41
2022/09/18 03:06:58;;;;;;;2.37;1.80;;;18.50;65.00;19.70;100661.00;;;;5050294;28;20492;-43
2022/09/18 03:09:24;;;;;;;3.47;1.97;;;18.50;65.00;19.70;100666.00;;;;5062621;28;20821;-43
2022/09/18 03:11:50;;;;;;;3.00;1.73;;;18.50;65.00;19.70;100655.00;;;;5049348;28;20205;-42
2022/09/18 03:14:15;;;;;;;3.20;1.80;;;18.60;65.00;19.60;100670.00;;;;5049576;28;20660;-44
2022/09/18 03:16:41;;;;;;;3.77;1.77;;;18.50;64.90;19.40;100663.00;;;;5049450;28;20291;-42
2022/09/18 03:19:07;;;;;;;3.63;2.03;;;18.50;64.90;19.70;100666.00;;;;5049427;28;20181;-41
2022/09/18 03:21:33;;;;;;;2.27;1.70;;;18.50;64.90;19.70;100662.00;;;;5048163;28;20193;-43
2022/09/18 03:23:59;;;;;;;2.67;1.60;;;18.50;64.90;19.70;100664.00;;;;5049368;28;20204;-42
2022/09/18 03:26:24;;;;;;;3.73;1.70;;;18.50;64.90;19.60;100660.00;;;;5049272;28;20178;-42
2022/09/18 03:28:50;;;;;;;4.83;1.67;;;18.50;65.00;19.70;100672.00;;;;5048913;28;20684;-43
2022/09/18 03:31:16;;;;;;;2.80;1.90;;;18.50;65.10;19.60;100659.00;;;;5048697;28;20179;-44
2022/09/18 03:33:41;;;;;;;2.53;1.73;;;18.50;65.00;19.60;100668.00;;;;5048559;28;20740;-43
2022/09/18 03:36:07;;;;;;;4.60;1.90;;;18.50;64.90;19.70;100663.00;;;;5048742;28;20217;-42
2022/09/18 03:38:33;;;;;;;5.03;1.87;;;18.50;65.00;19.70;100661.00;;;;5057053;28;20554;-43
2022/09/18 03:40:59;;;;;;;10.80;2.10;;;18.50;65.00;19.60;100664.00;;;;5062407;28;20154;-42
2022/09/18 03:43:26;;;;;;;8.83;2.20;;;18.50;65.10;19.60;100666.00;;;;5048590;28;20844;-42
2022/09/18 03:45:51;;;;;;;4.70;1.90;;;18.40;65.00;19.60;100672.00;;;;5049476;28;20216;-42
2022/09/18 03:48:19;;;;;;;4.37;1.83;;;18.40;65.00;19.60;100666.00;;;;5048931;28;20621;-42
2022/09/18 03:50:47;;;;;;;8.10;2.00;;;18.50;65.10;19.60;100540.00;;;;5049188;28;20527;-43
2022/09/18 03:53:13;;;;;;;4.77;1.93;;;18.50;65.20;19.60;100670.00;;;;5047893;28;20304;-44
2022/09/18 03:55:38;;;;;;;6.70;2.10;;;18.40;65.50;19.60;100674.00;;;;5048391;28;20209;-43
2022/09/18 03:58:04;;;;;;;4.73;2.00;;;18.40;65.50;19.60;100665.00;;;;5048582;28;20185;-43
2022/09/18 04:00:30;;;;;;;4.77;1.90;;;18.40;65.60;19.60;100667.00;;;;5048346;28;20162;-43
2022/09/18 04:02:56;;;;;;;5.93;1.70;;;18.40;65.60;19.50;100674.00;;;;5048521;28;20479;-42
2022/09/18 04:05:21;;;;;;;5.53;1.90;;;18.40;65.50;19.50;100659.00;;;;5048293;28;20302;-43
2022/09/18 04:07:47;;;;;;;3.00;1.80;;;18.40;65.40;19.50;100658.00;;;;5048686;28;20231;-42
2022/09/18 04:10:13;;;;;;;4.97;1.97;;;18.40;65.40;19.50;100676.00;;;;5048391;28;20186;-42
2022/09/18 04:12:39;;;;;;;5.10;1.70;;;18.40;65.30;19.50;100662.00;;;;5047790;28;20202;-42
2022/09/18 04:15:05;;;;;;;4.17;1.70;;;18.40;65.20;19.50;100657.00;;;;5056034;28;20205;-43
2022/09/18 04:17:31;;;;;;;4.23;1.57;;;18.40;65.20;19.50;100656.00;;;;5064635;28;20166;-42
2022/09/18 04:19:56;;;;;;;9.00;1.90;;;18.40;65.40;19.50;100663.00;;;;5062042;28;20677;-42
2022/09/18 04:22:22;;;;;;;3.43;2.00;;;18.40;65.60;19.50;100659.00;;;;5048465;28;20190;-42
2022/09/18 04:24:49;;;;;;;11.70;2.10;;;18.40;65.50;19.50;100658.00;;;;5047994;28;20174;-43
2022/09/18 04:27:15;;;;;;;3.87;2.00;;;18.30;65.30;19.50;100659.00;;;;5047940;28;20706;-41
2022/09/18 04:29:41;;;;;;;3.83;1.90;;;18.30;65.40;19.50;100669.00;;;;5048349;28;20174;-42
2022/09/18 04:32:06;;;;;;;6.97;1.93;;;18.30;65.30;19.50;100669.00;;;;5047187;28;20194;-42
2022/09/18 04:34:32;;;;;;;5.37;1.93;;;18.30;65.40;19.50;100675.00;;;;5047802;28;20556;-42
2022/09/18 04:36:58;;;;;;;5.37;1.90;;;18.40;65.40;19.40;100669.00;;;;5047168;28;20281;-42
2022/09/18 04:39:24;;;;;;;7.30;2.07;;;18.30;65.30;19.40;100668.00;;;;5048060;28;20158;-43
2022/09/18 04:41:50;;;;;;;4.23;1.80;;;18.30;65.40;19.40;100668.00;;;;5054914;28;20196;-42
2022/09/18 04:44:16;;;;;;;3.43;1.60;;;18.30;65.30;19.40;100649.00;;;;5087965;28;20179;-42
2022/09/18 04:46:41;;;;;;;3.00;1.63;;;18.30;65.30;19.40;100669.00;;;;5096776;28;20385;-43
2022/09/18 04:49:07;;;;;;;4.50;1.80;;;18.30;65.40;19.40;100676.00;;;;5100042;28;20187;-42
2022/09/18 04:51:33;;;;;;;3.40;1.90;;;18.30;65.40;19.40;100670.00;;;;5089152;28;20205;-42
2022/09/18 04:53:59;;;;;;;6.73;1.83;;;18.30;65.40;19.40;100664.00;;;;5097102;28;20180;-42
2022/09/18 04:56:25;;;;;;;4.43;1.73;;;18.30;65.40;19.40;100670.00;;;;5093375;28;20404;-42
2022/09/18 04:58:51;;;;;;;2.77;1.57;;;18.30;65.30;19.40;100662.00;;;;5087265;28;20173;-42
2022/09/18 05:01:17;;;;;;;4.60;1.90;;;18.30;65.30;19.40;100665.00;;;;5088587;28;20244;-43
2022/09/18 05:03:42;;;;;;;5.03;1.57;;;18.30;65.20;19.40;100658.00;;;;5086753;28;20462;-43
2022/09/18 05:06:08;;;;;;;4.30;1.50;;;18.30;65.20;19.40;100660.00;;;;5057955;28;20186;-42
2022/09/18 05:08:34;;;;;;;4.13;2.00;;;18.30;65.30;19.40;100661.00;;;;5048154;28;20182;-42
2022/09/18 05:11:00;;;;;;;8.63;1.87;;;18.20;65.60;19.40;100657.00;;;;5048280;28;20674;-42
2022/09/18 05:13:26;;;;;;;6.63;1.80;;;18.20;65.60;19.40;100655.00;;;;5045469;28;20202;-42
2022/09/18 05:15:55;;;;;;;3.00;1.60;;;18.20;65.40;19.40;100651.00;;;;5048030;28;20190;-42
2022/09/18 05:18:21;;;;;;;3.73;1.60;;;18.20;65.50;19.40;100661.00;;;;5047850;28;20627;-42
2022/09/18 05:20:47;;;;;;;2.77;1.53;;;18.20;65.60;19.40;100655.00;;;;5048106;28;20224;-44
2022/09/18 05:23:13;;;;;;;3.77;1.77;;;18.20;65.40;19.30;100645.00;;;;5048145;28;20260;-41
2022/09/18 05:25:40;;;;;;;2.67;1.67;;;18.20;65.40;19.30;100652.00;;;;5047809;28;20233;-42
2022/09/18 05:28:05;;;;;;;3.30;1.57;;;18.20;65.40;19.30;100663.00;;;;5048144;28;20269;-44
2022/09/18 05:30:31;;;;;;;4.70;1.60;;;18.20;65.30;19.30;100655.00;;;;5047023;28;20272;-42
2022/09/18 05:33:08;;;;;;;3.80;1.70;;;18.20;65.30;19.30;100658.00;;;;5047759;28;20237;-42
2022/09/18 05:35:34;;;;;;;3.13;1.60;;;18.20;65.30;19.30;100659.00;;;;5047248;28;20198;-41
2022/09/18 05:38:01;;;;;;;1.77;1.40;;;18.20;65.20;19.30;100663.00;;;;5048235;28;20189;-42
2022/09/18 05:40:30;;;;;;;2.20;1.67;;;18.20;65.30;19.30;100660.00;;;;5048148;28;20261;-41
2022/09/18 05:42:56;;;;;;;2.67;1.63;;;18.20;65.20;19.30;100650.00;;;;5046963;28;20690;-42
2022/09/18 05:45:22;;;;;;;6.73;1.83;;;18.20;65.30;19.30;100650.00;;;;5013093;28;20185;-42
2022/09/18 05:47:58;;;;;;;2.60;1.63;;;18.20;65.20;19.30;100655.00;;;;5087305;28;20224;-41
2022/09/18 05:50:25;;;;;;;2.83;1.60;;;18.20;65.20;19.30;100655.00;;;;5071271;28;20177;-43
2022/09/18 05:53:05;;;;;;;3.43;1.80;;;18.20;65.20;19.30;100654.00;;;;5071474;28;20267;-43
2022/09/18 05:55:31;;;;;;;2.13;1.60;;;18.20;65.20;19.30;100650.00;;;;5070530;28;20193;-42
2022/09/18 05:57:57;;;;;;;2.27;1.50;;;18.20;65.20;19.30;100657.00;;;;5074569;28;20178;-42
2022/09/18 06:00:24;;;;;;;2.90;1.30;;;18.10;65.20;19.30;100675.00;;;;5084646;28;20162;-41
2022/09/18 06:02:59;;;;;;;1.63;1.33;;;18.20;65.20;19.30;100670.00;;;;5075868;28;20201;-42
2022/09/18 06:05:25;;;;;;;1.73;1.40;;;18.10;65.20;19.30;100664.00;;;;5071794;28;20188;-43
2022/09/18 06:07:51;;;;;;;1.60;1.50;;;18.10;65.10;19.30;100663.00;;;;5091644;28;20232;-43
2022/09/18 06:10:18;;;;;;;1.57;1.47;;;18.10;65.20;19.30;100671.00;;;;5091331;28;20188;-42
2022/09/18 06:12:44;;;;;;;1.50;1.40;;;18.10;65.20;19.30;100664.00;;;;5091443;28;20219;-42
2022/09/18 06:15:09;;;;;;;2.30;1.53;;;18.10;65.20;19.30;100662.00;;;;5090915;28;20701;-43
2022/09/18 06:17:35;;;;;;;1.60;1.50;;;18.10;65.10;19.20;100674.00;;;;5090700;28;20157;-43
2022/09/18 06:20:02;;;;;;;1.60;1.50;;;18.10;65.00;19.20;100673.00;;;;5080872;28;20269;-43
2022/09/18 06:22:28;;;;;;;2.97;1.70;;;18.10;65.00;19.20;100677.00;;;;5087047;28;20207;-41
2022/09/18 06:24:53;;;;;;;1.57;1.47;;;18.10;65.00;19.20;100680.00;;;;5078995;28;20694;-42
2022/09/18 06:27:19;;;;;;;1.50;1.40;;;18.10;65.10;19.20;100675.00;;;;5083979;28;20177;-42
2022/09/18 06:29:45;;;;;;;1.47;1.37;;;18.10;65.10;19.20;100685.00;;;;5078083;28;20180;-43
2022/09/18 06:32:10;;;;;;;2.07;1.53;;;18.10;65.20;19.20;100686.00;;;;5081658;28;20267;-41
2022/09/18 06:34:36;;;;;;;1.47;1.37;;;18.10;65.00;19.20;100674.00;;;;5080072;28;20181;-42
2022/09/18 06:37:02;;;;;;;1.50;1.30;;;18.10;65.10;19.20;100671.00;;;;5080460;28;20667;-43
2022/09/18 06:39:28;;;;;;;1.43;1.33;;;18.00;65.10;19.20;100673.00;;;;5072595;28;20175;-44
2022/09/18 06:41:54;;;;;;;2.00;1.53;;;18.10;65.10;19.20;100674.00;;;;5070230;28;20193;-43
2022/09/18 06:44:20;;;;;;;1.93;1.43;;;18.10;65.00;19.20;100671.00;;;;5070804;28;20253;-42
2022/09/18 06:46:46;;;;;;;2.20;1.43;;;18.00;65.00;19.20;100675.00;;;;5070425;28;20177;-43
2022/09/18 06:49:12;;;;;;;1.60;1.50;;;18.00;65.00;19.20;100669.00;;;;5070882;28;20179;-44
2022/09/18 06:51:39;;;;;;;2.73;1.50;;;18.00;65.10;19.20;100671.00;;;;5070837;28;20243;-43
2022/09/18 06:54:05;;;;;;;1.47;1.37;;;18.00;65.00;19.20;100680.00;;;;5070652;28;20181;-42
2022/09/18 06:56:30;;;;;;;1.40;1.30;;;18.00;65.10;19.20;100669.00;;;;5069321;28;20197;-42
2022/09/18 06:58:56;;;;;;;2.60;1.63;;;18.00;65.10;19.20;100671.00;;;;5070326;28;20189;-43
2022/09/18 07:01:22;;;;;;;1.40;1.30;;;18.00;65.10;19.10;100667.00;;;;5070244;28;20172;-43
2022/09/18 07:03:48;;;;;;;1.50;1.40;;;18.00;65.10;19.10;100654.00;;;;5070515;28;20173;-43
2022/09/18 07:06:14;;;;;;;1.53;1.40;;;18.00;65.10;19.20;100648.00;;;;5070114;28;20177;-43
2022/09/18 07:08:40;;;;;;;2.27;1.60;;;18.00;65.10;19.10;100664.00;;;;5070118;28;20170;-43
2022/09/18 07:11:05;;;;;;;1.30;1.20;;;18.00;65.00;19.20;100655.00;;;;5070042;28;20187;-43
2022/09/18 07:13:32;;;;;;;1.50;1.27;;;18.00;65.10;19.20;100658.00;;;;5070186;28;20189;-43
2022/09/18 07:15:58;;;;;;;1.40;1.30;;;17.90;65.00;19.10;100661.00;;;;5069581;28;20249;-42
2022/09/18 07:18:24;;;;;;;1.30;1.20;;;18.00;65.20;19.10;100655.00;;;;5069770;28;20569;-42
2022/09/18 07:20:50;;;;;;;1.30;1.20;;;17.90;65.10;19.10;100648.00;;;;5070020;28;20174;-42
2022/09/18 07:23:16;;;;;;;1.63;1.50;;;17.90;65.10;18.90;100649.00;;;;5069938;28;20230;-41
2022/09/18 07:25:42;;;;;;;1.40;1.30;;;17.90;65.10;19.10;100654.00;;;;5069582;28;20178;-42
2022/09/18 07:28:09;;;;;;;1.23;1.13;;;17.90;65.10;19.10;100639.00;;;;5069648;28;20170;-42
2022/09/18 07:30:38;;;;;;;1.53;1.20;;;17.90;65.20;19.10;100654.00;;;;5068123;28;20172;-43
2022/09/18 07:33:05;;;;;;;1.50;1.40;;;17.90;65.10;19.10;100655.00;;;;5069152;28;20226;-42
2022/09/18 07:35:31;;;;;;;1.17;1.10;;;17.90;65.20;19.10;100645.00;;;;5069418;28;20733;-42
2022/09/18 07:38:00;;;;;;;1.50;1.30;;;17.90;65.20;19.10;100651.00;;;;5069276;28;20214;-42
2022/09/18 07:40:27;;;;;;;1.70;1.40;;;17.90;65.10;19.10;100656.00;;;;5069663;28;20167;-43
2022/09/18 07:43:01;;;;;;;3.33;1.33;;;17.90;65.80;19.10;100645.00;;;;5069238;28;20193;-42
2022/09/18 07:45:26;;;;;;;2.90;1.40;;;17.90;65.60;19.10;100643.00;;;;5080047;28;20158;-42
2022/09/18 07:47:52;;;;;;;4.47;1.70;;;18.00;65.50;19.10;100636.00;;;;5088513;28;20214;-42
2022/09/18 07:50:18;;;;;;;5.90;1.47;;;17.90;65.60;19.10;100651.00;;;;5083832;28;20172;-42
2022/09/18 07:52:52;;;;;;;3.63;1.37;;;17.90;65.80;19.10;100655.00;;;;5076233;28;20254;-42
2022/09/18 07:55:19;;;;;;;5.37;1.73;;;18.00;66.30;19.10;100646.00;;;;5075336;28;20193;-42
2022/09/18 07:57:53;;;;;;;3.10;1.77;;;18.10;66.60;19.10;100652.00;;;;5067821;28;20174;-44
2022/09/18 08:00:19;;;;;;;8.07;1.70;;;18.20;66.40;19.10;100653.00;;;;5002951;28;20178;-43
2022/09/18 08:02:45;;;;;;;7.33;2.03;;;18.30;66.40;19.10;100655.00;;;;5068557;28;20787;-42
2022/09/18 08:05:11;;;;;;;10.20;1.80;;;18.40;65.70;19.10;100655.00;;;;5068929;28;20168;-41
2022/09/18 08:07:36;;;;;;;7.43;1.60;;;18.60;65.80;19.20;100659.00;;;;5068340;28;20264;-42
2022/09/18 08:10:03;;;;;;;5.73;1.60;;;18.70;65.60;19.20;100660.00;;;;5069364;28;20228;-43
2022/09/18 08:12:30;;;;;;;4.57;1.40;;;18.70;65.60;19.20;100658.00;;;;5068788;28;20193;-42
2022/09/18 08:14:57;;;;;;;5.70;1.60;;;18.70;65.50;19.30;100655.00;;;;5066706;28;20174;-42
2022/09/18 08:17:23;;;;;;;4.97;1.47;;;18.70;65.50;19.30;100665.00;;;;5067132;28;20187;-42
2022/09/18 08:19:49;;;;;;;4.80;1.67;;;18.70;65.50;19.30;100654.00;;;;5068894;28;20238;-45
2022/09/18 08:22:15;;;;;;;5.27;1.90;;;18.80;65.40;19.30;100641.00;;;;5071306;28;20202;-43
2022/09/18 08:24:41;;;;;;;3.90;1.63;;;18.80;65.40;19.40;100675.00;;;;5080359;28;20191;-42
2022/09/18 08:27:07;;;;;;;4.23;1.90;;;18.80;65.40;19.40;100650.00;;;;5088625;28;20200;-42
2022/09/18 08:29:32;;;;;;;4.10;1.50;;;18.80;65.40;19.40;100652.00;;;;5088916;28;20605;-42
2022/09/18 08:31:58;;;;;;;4.00;1.40;;;18.80;65.40;19.40;100659.00;;;;5088793;28;20194;-42
2022/09/18 08:34:24;;;;;;;2.50;1.47;;;18.80;65.40;19.40;100665.00;;;;5089137;28;20173;-42
2022/09/18 08:36:50;;;;;;;1.80;1.60;;;18.80;65.30;19.40;100666.00;;;;5088655;28;20188;-41
2022/09/18 08:39:15;;;;;;;3.07;1.40;;;18.80;65.70;19.40;100663.00;;;;5088741;28;20518;-42
2022/09/18 08:41:56;;;;;;;5.87;1.70;;;18.80;66.20;19.40;100669.00;;;;5088544;28;20208;-42
2022/09/18 08:44:30;;;;;;;5.00;1.63;;;18.80;66.40;19.40;100654.00;;;;5088937;28;20184;-43
2022/09/18 08:47:36;;;;;;;3.83;1.53;;;18.80;67.20;19.40;100667.00;;;;5084728;28;20172;-43
2022/09/18 08:50:15;;;;;;;2.23;1.50;;;18.80;66.40;19.40;100651.00;;;;5006590;28;20190;-43
2022/09/18 08:52:44;;;;;;;2.33;1.30;;;18.80;66.20;19.40;100649.00;;;;4974052;28;20227;-43
2022/09/18 08:55:23;;;;;;;4.83;1.57;;;18.80;66.10;19.50;100656.00;;;;5035399;28;20209;-43
2022/09/18 08:57:58;;;;;;;3.17;1.43;;;18.80;66.20;19.50;100658.00;;;;5067201;28;20267;-42
2022/09/18 09:00:40;;;;;;;4.23;1.67;;;18.80;66.20;19.50;100657.00;;;;4999415;28;20177;-43
2022/09/18 09:03:43;;;;;;;4.27;1.63;;;18.80;66.10;19.50;100660.00;;;;5050812;28;20837;-43
2022/09/18 09:06:45;;;;;;;2.37;1.50;;;18.80;66.10;19.50;100657.00;;;;5062109;28;20170;-41
2022/09/18 09:09:29;;;;;;;1.77;1.40;;;18.70;65.90;19.50;100657.00;;;;5047105;28;20205;-42
2022/09/18 09:12:27;;;;;;;2.50;1.60;;;18.70;66.00;19.50;100655.00;;;;5047141;28;20232;-42
2022/09/18 09:15:10;;;;;;;3.97;1.40;;;18.70;66.00;19.50;100654.00;;;;5051007;28;20176;-42
2022/09/18 09:18:01;;;;;;;1.73;1.40;;;18.70;66.20;19.50;100620.00;;;;5066844;28;20174;-42
2022/09/18 09:20:52;;;;;;;2.33;1.50;;;18.70;66.00;19.40;100635.00;;;;5056142;28;20176;-42
2022/09/18 09:23:42;;;;;;;1.93;1.30;;;18.70;66.10;19.40;100638.00;;;;5071505;28;20195;-42
2022/09/18 09:26:18;;;;;;;1.97;1.20;;;18.70;66.20;19.40;100637.00;;;;5071942;28;20201;-43
2022/09/18 09:29:09;;;;;;;1.73;1.40;;;18.70;66.20;19.40;100647.00;;;;5054547;28;20242;-43
2022/09/18 09:31:42;;;;;;;2.60;1.40;;;18.60;66.00;19.40;100644.00;;;;5084917;28;20196;-43
2022/09/18 09:34:35;;;;;;;2.90;1.17;;;18.60;66.00;19.40;100652.00;;;;5075227;28;20156;-42
2022/09/18 09:37:03;;;;;;;2.10;1.30;;;18.60;66.10;19.40;100645.00;;;;5104375;28;20220;-42
2022/09/18 09:39:38;;;;;;;2.83;1.40;;;18.60;66.20;19.40;100641.00;;;;5074146;28;20169;-42
2022/09/18 09:42:28;;;;;;;2.00;1.50;;;18.60;66.20;19.40;100644.00;;;;5090869;28;20315;-42
2022/09/18 09:45:19;;;;;;;4.00;1.50;;;18.60;66.50;19.40;100651.00;;;;5073887;28;20180;-42
2022/09/18 09:48:29;;;;;;;5.90;1.70;;;18.60;66.30;19.40;100644.00;;;;5090916;28;20218;-42
2022/09/18 09:51:05;;;;;;;9.43;1.70;;;18.60;66.20;19.40;100642.00;;;;5091069;28;20249;-42
2022/09/18 09:53:31;;;;;;;5.97;2.00;;;18.70;66.20;19.40;100639.00;;;;5091132;28;20198;-42
2022/09/18 09:56:33;;;;;;;5.50;1.60;;;18.70;66.00;19.50;100634.00;;;;5075847;28;20216;-42
2022/09/18 09:59:20;;;;;;;6.00;1.50;;;18.80;65.70;19.50;100650.00;;;;5071220;28;20176;-42
2022/09/18 10:02:12;;;;;;;3.93;1.60;;;18.90;65.70;19.50;100615.00;;;;5060150;28;20208;-42
2022/09/18 10:04:58;;;;;;;3.93;1.60;;;19.10;65.70;19.60;100628.00;;;;5070784;28;20200;-42
2022/09/18 10:07:44;;;;;;;6.43;1.67;;;19.30;65.20;19.50;100619.00;;;;5071325;28;20720;-42
2022/09/18 10:10:40;;;;;;;5.40;1.87;;;19.40;64.90;19.80;100624.00;;;;5069940;28;20185;-41
2022/09/18 10:13:33;;;;;;;5.40;1.80;;;19.60;64.70;19.90;100624.00;;;;5048053;28;20220;-42
2022/09/18 10:16:21;;;;;;;2.53;1.20;;;19.80;64.40;20.00;100624.00;;;;5070202;28;20193;-42
2022/09/18 10:18:47;;;;;;;5.20;1.20;;;19.90;63.90;20.10;100617.00;;;;5070392;28;20154;-42
2022/09/18 10:21:19;;;;;;;3.40;1.60;;;20.10;63.70;20.20;100602.00;;;;5067132;28;20643;-42
2022/09/18 10:24:08;;;;;;;2.53;1.63;;;20.30;63.50;20.40;100611.00;;;;5084728;28;20177;-42
2022/09/18 10:26:53;;;;;;;4.57;1.60;;;20.40;63.10;20.50;100604.00;;;;5069939;28;20544;-41
2022/09/18 10:29:19;;;;;;;6.93;1.43;;;20.60;62.90;20.60;100612.00;;;;5070021;28;20165;-41
2022/09/18 10:31:48;;;;;;;4.63;1.70;;;20.70;62.90;20.70;100615.00;;;;5070870;28;20208;-44
2022/09/18 10:34:39;;;;;;;1.97;1.50;;;20.70;62.80;20.80;100600.00;;;;5071014;28;20259;-42
2022/09/18 10:37:32;;;;;;;4.70;1.50;;;20.80;63.00;20.90;100601.00;;;;5070326;28;20190;-44
2022/09/18 10:40:00;;;;;;;6.37;1.80;;;20.80;62.90;20.90;100606.00;;;;5063785;28;20197;-43
2022/09/18 10:42:28;;;;;;;4.93;1.70;;;20.90;63.70;21.00;100608.00;;;;5084235;28;20198;-43
2022/09/18 10:45:01;;;;;;;3.20;1.70;;;20.80;64.00;21.10;100612.00;;;;5083988;28;20227;-43
2022/09/18 10:47:35;;;;;;;4.57;1.63;;;20.90;64.10;21.10;100609.00;;;;5072285;28;20178;-43
2022/09/18 10:50:13;;;;;;;3.43;1.53;;;20.80;64.10;21.10;100602.00;;;;5069468;28;20162;-43
2022/09/18 10:52:40;;;;;;;2.27;1.40;;;20.90;64.20;21.10;100609.00;;;;5075422;28;20192;-44
2022/09/18 10:55:24;;;;;;;4.33;1.60;;;20.90;64.30;21.20;100604.00;;;;5080621;28;20470;-43
2022/09/18 10:57:56;;;;;;;4.40;1.50;;;20.90;64.20;21.20;100593.00;;;;5052969;28;20668;-42
2022/09/18 11:00:28;;;;;;;3.23;1.50;;;20.90;64.50;21.20;100596.00;;;;4929269;28;20169;-44
2022/09/18 11:03:23;;;;;;;4.73;1.63;;;20.80;64.70;21.20;100589.00;;;;5068432;28;20207;-45
2022/09/18 11:05:54;;;;;;;7.90;1.80;;;20.80;64.90;21.20;100587.00;;;;5069889;28;20276;-43
2022/09/18 11:08:30;;;;;;;3.90;1.63;;;20.80;64.90;21.20;100580.00;;;;5069495;28;20410;-44
2022/09/18 11:11:18;;;;;;;2.37;1.60;;;20.80;65.10;21.20;100587.00;;;;5053379;28;20191;-44